National Oceanic Atmosphere Administration National Weather Service Headquarters National Weather Service Headquarters
NOAA logo WFO Anchorage Scalable transition graphic NWS logo
Transition from title bar to navgation bar   Aviation Weather 12 AKST 
blankspace Home   |   Mobile   |   Social Media   |   Mesonet   |   Surface Map   |   Radar   |   Submit Storm Reports   |   News =21 GMT 

LocalForecast by City, St or Zip Code

spacer

Forecasts/Products
  Public
  Forecast Discussion
    - With Glossary
  Aviation
  Marine
  Hydrology(RFC)
  Rivers & Lakes AHPS
  Ice Desk
  TV Weather
  Fire Weather
  Avalanche
  Travel 511
  Graphical
  xml logo RSS Feeds
  Marine FTPMail

spacer

Data
  Mesonet
  Model Graphics
  Local Model
  Observations
  Marine Obs
  Satellite/Radar
  Vent Factor
  Soaring Index
  Weather Links

spacer

Climate
  PAFC Climate
  Interactive Climate
  PAFC Records
  Local
  National
  More

spacer

Outreach
  About Us
  Community Outreach
  Kids' Page
  Tour/Speaker Request
  Weather Classroom
  Social Media

spacer

Reports
  COOP Observers
  Local Storm Reports
  Spotter Page
  Submit a Storm Report

spacer

Miscellaneous
  Archived Alaska Weather Stories
  Student Career Opportunities
  Research Papers

spacer

Print Friendly/
Low Bandwidth

  Public Forecasts
  Marine Forecasts

spacer

Contact Us
  mailto pafcweb

spacer

Facebook Follow the National Weather Service in Alaska on Twitter
USA.gov is the U.S. government's official web portal to all federal, state and local government web resources and services.


 ICAO ID:   AAWU Graphics

Internet access to TAFs and METAR observations is for planning purposes only. We can not guarantee the timeliness of internet products. Before flying please get a formal pilot briefing (1-800-992-7433) and ALWAYS file a Flight Plan!Pilot briefings are provided to licensed aircraft pilots, ONLY! Others may not use the above number to obtain weather information.

Check out the Key to TAFs and METARs for help with decoding the information.

A 12 hour summary of TAFs can be found here.

PAMC TAF
PAMC 252111Z 2521/2618  11003KT P6SM -SN SCT050 OVC060
     FM260000 VRB03KT P6SM OVC060=


METAR PAMC 252053Z 11003KT 9SM -SN BKN048 OVC060 M09/M12 A3023 RMK AO2
     SNB1958 SLP247 P0000 60000 T10891117 53026=
SPECI PAMC 252039Z 12003KT 8SM -SN SCT029 OVC055 M09/M12 A3023 RMK AO2
     SNB1958 P0000 T10891117=
PAMC 252039Z 12003KT 8SM -SN SCT029 OVC055 M09/M12 A3023=
SPECI PAMC 252031Z 12003KT 2SM -SN SCT027 BKN040 OVC060 M09/M12 A3023
     RMK AO2 SNB1958 P0000 T10891117=
PAMC 252031Z 12003KT 2SM -SN SCT027 BKN040 OVC060 M09/M12 A3023=
SPECI PAMC 252003Z 00000KT 1 3/4SM -SN BKN029 OVC047 M09/M12 A3022 RMK
     AO2 SNB1958 P0000 T10891117=
PAMC 252003Z 00000KT 1 3/4SM -SN BKN029 OVC047 M09/M12 A3022=
METAR PAMC 251953Z 00000KT 10SM OVC048 M09/M12 A3021 RMK AO2 SNB18E32
     SLP239 P0000 T10891117=
METAR PAMC 251853Z 09003KT 10SM OVC065 M09/M12 A3018 RMK AO2 SLP229
     T10941122=
METAR PAMC 251753Z 12003KT 10SM FEW015 OVC060 M09/M12 A3016 RMK AO2
 SNE19 SLP221 P0000 60000 T10941122 11089 21094 51021=


National Weather Service
Anchorage Forecast Office
6930 Sand Lake Road
Anchorage, Ak 99502
(907) 266-5105 M-F/7-5pm
About Us
Career Opportunities
Glossary
Disclaimer
Privacy Policy
Credits
Alaska Weather Information Line:
1-800-472-0391